Time;durP1;ratioP1;P1;durP2;ratioP2;P2;SDS_P1;SDS_P2;PMS_P1;PMS_P2;Temp;Humidity;BMP_temperature;BMP_pressure;BME280_temperature;BME280_humidity;BME280_pressure;Samples;Min_cycle;Max_cycle;Signal;HPM_P1;HPM_P2
2023/12/20 00:00:10;;;;;;;10.52;1.77;;;5.90;99.90;;;;;;5041192;28;20040;-86
2023/12/20 00:02:37;;;;;;;11.07;1.65;;;6.00;99.90;;;;;;5068459;28;20035;-81
2023/12/20 00:05:03;;;;;;;13.20;2.08;;;6.00;99.90;;;;;;5076399;28;20038;-83
2023/12/20 00:07:30;;;;;;;6.97;1.23;;;6.00;99.90;;;;;;5075151;27;20035;-82
2023/12/20 00:09:56;;;;;;;6.47;1.17;;;6.00;99.90;;;;;;5090398;27;20036;-79
2023/12/20 00:12:22;;;;;;;9.07;1.50;;;5.90;99.90;;;;;;5089770;28;20032;-81
2023/12/20 00:14:49;;;;;;;12.18;1.60;;;5.90;99.90;;;;;;5059047;27;20040;-76
2023/12/20 00:17:15;;;;;;;12.15;2.08;;;5.90;99.90;;;;;;5057268;28;20036;-82
2023/12/20 00:19:41;;;;;;;9.10;1.90;;;5.80;99.90;;;;;;5056881;28;20036;-81
2023/12/20 00:22:08;;;;;;;9.40;1.88;;;5.80;99.90;;;;;;5070890;28;20031;-85
2023/12/20 00:24:34;;;;;;;8.50;2.10;;;5.90;99.90;;;;;;5056557;28;20425;-81
2023/12/20 00:27:00;;;;;;;8.57;2.20;;;5.90;99.90;;;;;;5093663;28;20058;-75
2023/12/20 00:29:27;;;;;;;11.48;3.25;;;6.00;99.90;;;;;;5097379;27;20028;-77
2023/12/20 00:31:53;;;;;;;14.68;2.47;;;6.00;99.90;;;;;;5092867;27;20086;-79
2023/12/20 00:34:19;;;;;;;18.80;3.28;;;6.00;99.90;;;;;;5075347;27;20035;-83
2023/12/20 00:36:45;;;;;;;9.73;1.80;;;5.90;99.90;;;;;;5074019;28;20040;-82
2023/12/20 00:39:12;;;;;;;9.30;2.00;;;5.90;99.90;;;;;;5075228;28;20383;-81
2023/12/20 00:41:38;;;;;;;12.80;3.00;;;5.80;99.90;;;;;;5092256;28;20036;-82
2023/12/20 00:44:05;;;;;;;15.93;2.80;;;5.80;99.90;;;;;;5073379;28;20039;-81
2023/12/20 00:46:31;;;;;;;16.10;2.50;;;5.70;99.90;;;;;;5091867;28;20032;-81
2023/12/20 00:48:57;;;;;;;13.07;2.38;;;5.70;99.90;;;;;;5090451;28;20038;-81
2023/12/20 00:51:24;;;;;;;11.40;2.25;;;5.70;99.90;;;;;;5106094;27;20049;-83
2023/12/20 00:53:54;;;;;;;8.95;1.83;;;5.60;99.90;;;;;;5075284;27;20040;-83
2023/12/20 00:56:21;;;;;;;15.35;2.30;;;5.60;99.90;;;;;;5097300;27;20028;-76
2023/12/20 00:58:47;;;;;;;10.90;2.25;;;5.60;99.90;;;;;;5071252;28;20525;-79
2023/12/20 01:01:13;;;;;;;21.15;3.25;;;5.50;99.90;;;;;;5088334;28;20058;-79
2023/12/20 01:03:40;;;;;;;15.77;2.60;;;5.50;99.90;;;;;;5057762;28;20493;-83
2023/12/20 01:06:06;;;;;;;10.98;2.22;;;5.50;99.90;;;;;;5059039;28;20024;-83
2023/12/20 01:08:34;;;;;;;17.40;2.28;;;5.50;99.90;;;;;;5073480;28;20510;-80
2023/12/20 01:11:04;;;;;;;9.85;2.72;;;5.40;99.90;;;;;;5095860;28;20024;-85
2023/12/20 01:13:30;;;;;;;11.50;2.67;;;5.40;99.90;;;;;;5059135;28;20082;-78
2023/12/20 01:15:56;;;;;;;9.43;2.60;;;5.40;99.90;;;;;;5091216;28;20040;-79
2023/12/20 01:18:23;;;;;;;15.88;2.63;;;5.40;99.90;;;;;;5073066;28;20051;-80
2023/12/20 01:20:49;;;;;;;11.55;2.28;;;5.40;99.90;;;;;;5044369;28;20028;-83
2023/12/20 01:23:15;;;;;;;11.80;2.78;;;5.30;99.90;;;;;;5073454;28;20031;-80
2023/12/20 01:25:43;;;;;;;12.73;2.00;;;5.30;99.90;;;;;;5042039;28;20362;-82
2023/12/20 01:28:09;;;;;;;9.93;1.92;;;5.30;99.90;;;;;;5056566;28;20035;-81
2023/12/20 01:30:35;;;;;;;13.63;2.55;;;5.40;99.90;;;;;;5056839;28;20039;-80
2023/12/20 01:33:02;;;;;;;16.90;2.33;;;5.40;99.90;;;;;;5074162;28;20493;-76
2023/12/20 01:35:28;;;;;;;6.20;1.60;;;5.30;99.90;;;;;;5088169;28;20031;-82
2023/12/20 01:37:56;;;;;;;9.88;1.60;;;5.30;99.90;;;;;;5091522;28;20035;-81
2023/12/20 01:40:23;;;;;;;17.20;2.55;;;5.30;99.90;;;;;;5076828;28;20040;-77
2023/12/20 01:43:07;;;;;;;11.13;1.85;;;5.30;99.90;;;;;;5054156;28;20035;-82
2023/12/20 01:45:34;;;;;;;18.40;2.10;;;5.20;99.90;;;;;;5071065;28;20711;-82
2023/12/20 01:48:02;;;;;;;14.38;3.03;;;5.20;99.90;;;;;;5071944;28;20028;-81
2023/12/20 01:50:29;;;;;;;14.85;2.88;;;5.30;99.90;;;;;;5091358;28;20036;-79
2023/12/20 01:53:00;;;;;;;14.32;2.83;;;5.20;99.90;;;;;;5087990;28;20039;-80
2023/12/20 01:55:33;;;;;;;26.90;2.70;;;5.30;99.90;;;;;;5058222;28;20594;-81
2023/12/20 01:58:00;;;;;;;19.35;2.75;;;5.20;99.90;;;;;;5069604;28;20047;-81
2023/12/20 02:00:29;;;;;;;12.48;3.40;;;5.30;99.90;;;;;;5072302;28;20028;-83
2023/12/20 02:02:56;;;;;;;16.65;2.80;;;5.30;99.90;;;;;;5077188;28;20039;-83
2023/12/20 02:05:24;;;;;;;21.92;3.55;;;5.30;99.90;;;;;;5073735;28;20394;-82
2023/12/20 02:07:50;;;;;;;21.65;2.83;;;5.30;99.90;;;;;;5088877;27;20043;-80
2023/12/20 02:10:17;;;;;;;18.52;3.10;;;5.40;99.90;;;;;;5073355;28;20043;-80
2023/12/20 02:12:43;;;;;;;12.95;2.00;;;5.40;99.90;;;;;;5094020;28;20032;-80
2023/12/20 02:15:09;;;;;;;17.75;3.45;;;5.40;99.90;;;;;;5076038;28;20051;-75
2023/12/20 02:17:38;;;;;;;13.65;2.17;;;5.40;99.90;;;;;;5074540;28;20050;-81
2023/12/20 02:20:05;;;;;;;11.30;2.67;;;5.40;99.90;;;;;;5076844;28;20035;-84
2023/12/20 02:22:32;;;;;;;15.35;2.88;;;5.40;99.90;;;;;;5079685;28;20039;-81
2023/12/20 02:24:58;;;;;;;15.25;1.90;;;5.40;99.90;;;;;;5082318;27;20996;-82
2023/12/20 02:27:24;;;;;;;23.02;2.72;;;5.40;99.90;;;;;;5051082;28;20390;-80
2023/12/20 02:29:51;;;;;;;13.07;2.50;;;5.40;99.90;;;;;;5063416;27;20031;-82
2023/12/20 02:32:22;;;;;;;8.27;1.73;;;5.40;99.90;;;;;;5078820;28;20031;-83
2023/12/20 02:34:49;;;;;;;14.70;2.10;;;5.40;99.90;;;;;;5097610;28;20501;-83
2023/12/20 02:37:15;;;;;;;12.82;2.95;;;5.50;99.90;;;;;;5061568;28;21369;-81
2023/12/20 02:39:42;;;;;;;22.90;3.65;;;5.50;99.90;;;;;;5057466;28;20040;-84
2023/12/20 02:42:08;;;;;;;13.35;2.70;;;5.50;99.90;;;;;;5062220;27;20040;-83
2023/12/20 02:44:34;;;;;;;14.18;3.30;;;5.50;99.90;;;;;;5060122;28;20039;-80
2023/12/20 02:47:01;;;;;;;12.43;2.63;;;5.60;99.90;;;;;;5079477;27;20073;-76
2023/12/20 02:49:27;;;;;;;19.58;3.47;;;5.60;99.90;;;;;;5044369;28;20043;-81
2023/12/20 02:51:53;;;;;;;21.25;3.40;;;5.50;99.90;;;;;;5079318;27;20031;-81
2023/12/20 02:54:20;;;;;;;24.33;3.60;;;5.60;99.90;;;;;;5077049;28;20038;-80
2023/12/20 02:56:46;;;;;;;22.35;3.72;;;5.60;99.90;;;;;;5093593;27;20032;-83
2023/12/20 02:59:12;;;;;;;19.70;4.10;;;5.60;99.90;;;;;;5076746;28;20035;-76
2023/12/20 03:01:44;;;;;;;18.05;3.42;;;5.60;99.90;;;;;;5062173;28;20493;-83
2023/12/20 03:04:11;;;;;;;17.67;3.22;;;5.70;99.90;;;;;;5060339;28;20042;-75
2023/12/20 03:06:38;;;;;;;9.90;2.55;;;5.70;99.90;;;;;;5097463;27;20490;-83
2023/12/20 03:09:05;;;;;;;15.63;3.13;;;5.80;99.90;;;;;;5076408;28;20036;-85
2023/12/20 03:11:31;;;;;;;27.05;4.00;;;5.70;99.90;;;;;;5094875;27;20482;-80
2023/12/20 03:13:57;;;;;;;23.10;4.90;;;5.70;99.90;;;;;;5093886;27;20031;-84
2023/12/20 03:16:24;;;;;;;21.10;4.25;;;5.70;99.90;;;;;;5094728;27;20036;-85
2023/12/20 03:18:50;;;;;;;37.28;6.07;;;5.70;99.90;;;;;;5095546;27;20036;-83
2023/12/20 03:21:17;;;;;;;16.95;4.20;;;5.70;99.90;;;;;;5060667;28;20050;-75
2023/12/20 03:23:44;;;;;;;15.45;3.63;;;5.60;99.90;;;;;;5041705;28;20032;-81
2023/12/20 03:26:10;;;;;;;21.08;4.72;;;5.60;99.90;;;;;;5075021;28;20040;-81
2023/12/20 03:28:36;;;;;;;15.30;3.88;;;5.60;99.90;;;;;;5072123;28;20031;-83
2023/12/20 03:31:03;;;;;;;18.73;5.32;;;5.60;99.90;;;;;;5073804;28;20040;-84
2023/12/20 03:33:29;;;;;;;22.13;5.13;;;5.50;99.90;;;;;;5095664;27;20024;-81
2023/12/20 03:35:56;;;;;;;22.50;3.78;;;5.50;99.90;;;;;;5078017;28;20031;-84
2023/12/20 03:38:25;;;;;;;21.13;4.57;;;5.50;99.90;;;;;;5077005;28;20401;-80
2023/12/20 03:40:51;;;;;;;28.08;3.90;;;5.50;99.90;;;;;;5072849;28;20035;-84
2023/12/20 03:43:18;;;;;;;24.70;4.25;;;5.50;99.90;;;;;;5094577;27;20505;-81
2023/12/20 03:45:44;;;;;;;24.02;3.70;;;5.50;99.90;;;;;;5058198;28;20039;-84
2023/12/20 03:48:10;;;;;;;17.15;3.65;;;5.50;99.90;;;;;;5071923;28;20024;-84
2023/12/20 03:50:36;;;;;;;20.50;4.47;;;5.50;99.90;;;;;;5058425;28;20031;-76
2023/12/20 03:53:03;;;;;;;17.73;3.35;;;5.40;99.90;;;;;;5091281;28;20039;-80
2023/12/20 03:55:30;;;;;;;10.30;2.47;;;5.40;99.90;;;;;;5088229;27;20739;-84
2023/12/20 03:57:56;;;;;;;14.05;3.40;;;5.40;99.90;;;;;;5073066;28;20051;-83
2023/12/20 04:00:22;;;;;;;14.70;3.03;;;5.40;99.90;;;;;;5077711;27;20028;-84
2023/12/20 04:02:49;;;;;;;13.98;3.13;;;5.40;99.90;;;;;;5059814;28;20035;-78
2023/12/20 04:05:15;;;;;;;18.95;3.95;;;5.40;99.90;;;;;;5044957;28;20711;-82
2023/12/20 04:07:41;;;;;;;22.13;4.75;;;5.40;99.90;;;;;;5059194;27;20053;-84
2023/12/20 04:10:08;;;;;;;24.63;4.35;;;5.40;99.90;;;;;;5092751;27;20109;-78
2023/12/20 04:12:35;;;;;;;18.60;3.70;;;5.50;99.90;;;;;;5077724;28;20042;-81
2023/12/20 04:15:01;;;;;;;23.13;4.40;;;5.50;99.90;;;;;;5081693;28;20043;-77
2023/12/20 04:17:27;;;;;;;30.75;5.18;;;5.50;99.90;;;;;;5082881;28;20051;-77
2023/12/20 04:19:54;;;;;;;20.83;4.85;;;5.40;99.90;;;;;;5100781;28;20031;-84
2023/12/20 04:22:20;;;;;;;20.25;4.78;;;5.50;99.90;;;;;;5066845;28;20031;-81
2023/12/20 04:24:46;;;;;;;17.83;4.18;;;5.60;99.90;;;;;;5063023;27;20034;-82
2023/12/20 04:27:13;;;;;;;18.00;3.88;;;5.60;99.90;;;;;;5077866;27;20500;-79
2023/12/20 04:29:39;;;;;;;19.33;3.33;;;5.60;99.90;;;;;;5078114;28;20086;-81
2023/12/20 04:32:05;;;;;;;19.50;4.13;;;5.60;99.90;;;;;;5075870;27;20030;-81
2023/12/20 04:34:32;;;;;;;21.08;4.18;;;5.50;99.90;;;;;;5041768;28;20031;-84
2023/12/20 04:36:58;;;;;;;34.00;4.18;;;5.50;99.90;;;;;;5073723;28;20036;-76
2023/12/20 04:39:25;;;;;;;30.25;5.70;;;5.60;99.90;;;;;;5075281;27;20043;-81
2023/12/20 04:41:51;;;;;;;26.55;5.07;;;5.70;99.90;;;;;;5059830;28;20039;-84
2023/12/20 04:44:17;;;;;;;23.73;4.68;;;5.70;99.90;;;;;;5074959;28;20035;-84
2023/12/20 04:46:44;;;;;;;30.70;4.60;;;5.80;99.90;;;;;;5073969;27;20032;-77
2023/12/20 04:49:10;;;;;;;23.60;4.75;;;5.80;99.90;;;;;;5072512;28;20040;-76
2023/12/20 04:51:37;;;;;;;25.42;5.43;;;5.80;99.90;;;;;;5089742;28;20039;-82
2023/12/20 04:54:04;;;;;;;28.50;5.18;;;5.80;99.90;;;;;;5058008;28;20032;-85
2023/12/20 04:56:31;;;;;;;23.05;5.10;;;5.90;99.90;;;;;;5090344;28;20031;-84
2023/12/20 04:58:57;;;;;;;21.15;4.47;;;5.90;99.90;;;;;;5041387;28;20051;-75
2023/12/20 05:01:23;;;;;;;27.77;4.03;;;6.00;99.90;;;;;;5073068;28;20505;-83
2023/12/20 05:03:50;;;;;;;20.77;3.85;;;6.00;99.90;;;;;;5071759;28;20042;-82
2023/12/20 05:06:16;;;;;;;32.83;5.40;;;6.10;99.90;;;;;;5071875;28;20032;-85
2023/12/20 05:08:42;;;;;;;24.25;3.97;;;6.10;99.90;;;;;;5054423;28;20479;-83
2023/12/20 05:11:09;;;;;;;25.13;3.70;;;6.10;99.90;;;;;;5090209;28;20046;-76
2023/12/20 05:13:35;;;;;;;20.05;4.05;;;6.20;99.90;;;;;;5092991;28;20028;-82
2023/12/20 05:16:01;;;;;;;18.25;3.30;;;6.20;99.90;;;;;;5074917;28;20490;-84
2023/12/20 05:18:28;;;;;;;26.05;4.43;;;6.20;99.90;;;;;;5041771;28;20493;-85
2023/12/20 05:20:54;;;;;;;30.15;4.10;;;6.20;99.90;;;;;;5041997;28;20040;-83
2023/12/20 05:23:21;;;;;;;21.25;3.25;;;6.20;99.90;;;;;;5057997;28;20035;-77
2023/12/20 05:25:47;;;;;;;34.67;6.25;;;6.20;99.90;;;;;;5057480;28;20037;-83
2023/12/20 05:28:13;;;;;;;29.55;5.07;;;6.20;99.90;;;;;;5065266;28;20043;-81
2023/12/20 05:30:40;;;;;;;21.33;4.10;;;6.30;99.90;;;;;;5076581;28;20044;-81
2023/12/20 05:33:06;;;;;;;26.40;4.93;;;6.30;99.90;;;;;;5091712;28;20023;-82
2023/12/20 05:35:32;;;;;;;20.77;3.50;;;6.30;99.90;;;;;;5077217;28;20042;-76
2023/12/20 05:37:58;;;;;;;31.20;5.28;;;6.40;99.90;;;;;;5089155;27;20035;-81
2023/12/20 05:40:25;;;;;;;23.90;4.35;;;6.40;99.90;;;;;;5061151;28;20042;-80
2023/12/20 05:42:51;;;;;;;24.95;3.70;;;6.40;99.90;;;;;;5060366;28;20046;-82
2023/12/20 05:45:17;;;;;;;18.20;3.47;;;6.40;99.90;;;;;;5045829;28;20032;-81
2023/12/20 05:47:44;;;;;;;20.58;3.63;;;6.50;99.90;;;;;;5063205;28;20035;-76
2023/12/20 05:50:10;;;;;;;17.05;3.85;;;6.50;99.90;;;;;;5079213;28;20036;-82
2023/12/20 05:52:37;;;;;;;29.75;4.53;;;6.50;99.90;;;;;;5098006;27;20039;-80
2023/12/20 05:55:03;;;;;;;20.05;4.50;;;6.50;99.90;;;;;;5060254;28;20039;-84
2023/12/20 05:57:31;;;;;;;22.65;3.58;;;6.60;99.90;;;;;;5095068;28;20066;-79
2023/12/20 05:59:57;;;;;;;18.30;4.05;;;6.60;99.90;;;;;;5093980;27;20042;-79
2023/12/20 06:02:24;;;;;;;18.88;3.45;;;6.60;99.90;;;;;;5059072;28;20042;-81
2023/12/20 06:04:50;;;;;;;25.20;3.78;;;6.60;99.90;;;;;;5077967;28;20039;-81
2023/12/20 06:07:16;;;;;;;27.10;4.35;;;6.60;99.90;;;;;;5096943;27;20529;-84
2023/12/20 06:09:44;;;;;;;19.90;3.88;;;6.60;99.90;;;;;;5081858;28;20039;-85
2023/12/20 06:12:11;;;;;;;31.13;4.82;;;6.60;99.90;;;;;;5069759;28;20062;-79
2023/12/20 06:14:37;;;;;;;26.20;4.40;;;6.70;99.90;;;;;;5081718;28;20038;-81
2023/12/20 06:17:03;;;;;;;20.58;4.22;;;6.70;99.90;;;;;;5077694;28;20035;-83
2023/12/20 06:19:29;;;;;;;33.28;5.35;;;6.70;99.90;;;;;;5061130;28;20027;-82
2023/12/20 06:21:56;;;;;;;24.55;4.47;;;6.70;99.90;;;;;;5062558;28;20040;-81
2023/12/20 06:24:22;;;;;;;38.03;5.60;;;6.70;99.90;;;;;;5075312;28;20441;-85
2023/12/20 06:26:48;;;;;;;24.85;3.95;;;6.70;99.90;;;;;;5061099;27;20139;-85
2023/12/20 06:29:15;;;;;;;20.38;4.35;;;6.70;99.90;;;;;;5099962;27;20144;-84
2023/12/20 06:31:41;;;;;;;37.72;6.85;;;6.70;99.90;;;;;;5082682;28;20035;-80
2023/12/20 06:34:07;;;;;;;24.77;4.63;;;6.70;99.90;;;;;;5099252;27;20040;-85
2023/12/20 06:36:34;;;;;;;31.20;5.05;;;6.70;99.90;;;;;;5046277;28;20059;-85
2023/12/20 06:39:00;;;;;;;24.08;4.15;;;6.70;99.90;;;;;;5078455;28;20422;-82
2023/12/20 06:41:26;;;;;;;24.50;3.92;;;6.70;99.90;;;;;;5078854;28;20035;-81
2023/12/20 06:43:53;;;;;;;19.33;3.28;;;6.70;99.90;;;;;;5058665;28;20050;-81
2023/12/20 06:46:20;;;;;;;27.33;5.25;;;6.70;99.90;;;;;;5074424;28;20035;-86
2023/12/20 06:48:46;;;;;;;21.80;4.05;;;6.70;99.90;;;;;;5062070;28;20031;-86
2023/12/20 06:51:16;;;;;;;26.23;4.93;;;6.70;99.90;;;;;;5074374;28;20047;-83
2023/12/20 06:53:43;;;;;;;24.25;3.55;;;6.70;99.90;;;;;;5094004;27;20470;-84
2023/12/20 06:56:14;;;;;;;23.92;3.92;;;6.70;99.90;;;;;;5059599;28;20390;-77
2023/12/20 06:58:40;;;;;;;28.35;5.65;;;6.70;99.90;;;;;;5077016;28;20036;-86
2023/12/20 07:01:11;;;;;;;27.73;4.85;;;6.70;99.90;;;;;;5097795;27;20032;-78
2023/12/20 07:03:38;;;;;;;28.33;3.95;;;6.70;99.90;;;;;;5108994;27;20046;-78
2023/12/20 07:06:05;;;;;;;23.45;3.33;;;6.80;99.90;;;;;;5107038;27;20040;-81
2023/12/20 07:08:31;;;;;;;23.95;4.65;;;6.80;99.90;;;;;;5072411;27;20040;-86
2023/12/20 07:10:57;;;;;;;28.88;4.72;;;6.80;99.90;;;;;;5059516;28;20059;-86
2023/12/20 07:13:24;;;;;;;25.35;5.22;;;6.80;99.90;;;;;;5070063;28;20028;-74
2023/12/20 07:15:51;;;;;;;32.60;5.03;;;6.80;99.90;;;;;;5090538;28;20509;-79
2023/12/20 07:18:17;;;;;;;32.25;5.80;;;6.80;99.90;;;;;;5059867;28;20036;-81
2023/12/20 07:20:43;;;;;;;28.40;4.55;;;6.80;99.90;;;;;;5093609;27;20031;-86
2023/12/20 07:23:10;;;;;;;18.63;4.30;;;6.80;99.90;;;;;;5058970;28;20039;-85
2023/12/20 07:25:36;;;;;;;29.95;5.57;;;6.80;99.90;;;;;;5092945;28;20028;-80
2023/12/20 07:28:02;;;;;;;29.58;4.80;;;6.80;99.90;;;;;;5093773;28;22684;-79
2023/12/20 07:30:29;;;;;;;23.83;3.97;;;6.80;99.90;;;;;;5062433;28;20098;-83
2023/12/20 07:32:55;;;;;;;28.10;4.45;;;6.80;99.90;;;;;;5092076;27;20367;-86
2023/12/20 07:35:23;;;;;;;26.48;4.68;;;6.80;99.90;;;;;;5095080;28;20043;-82
2023/12/20 07:37:49;;;;;;;23.80;3.70;;;6.80;99.90;;;;;;5093186;27;20411;-84
2023/12/20 07:40:17;;;;;;;19.52;4.07;;;6.80;99.90;;;;;;5095997;28;20032;-82
2023/12/20 07:42:43;;;;;;;23.15;3.53;;;6.80;99.90;;;;;;5061567;28;20050;-84
2023/12/20 07:45:10;;;;;;;26.98;4.40;;;6.80;99.90;;;;;;5060389;27;20027;-79
2023/12/20 07:47:36;;;;;;;22.15;4.30;;;6.90;99.90;;;;;;5075248;28;20324;-84
2023/12/20 07:50:03;;;;;;;26.23;4.00;;;6.90;99.90;;;;;;5043904;27;20044;-80
2023/12/20 07:52:30;;;;;;;18.98;3.80;;;6.90;99.90;;;;;;5054458;28;20036;-84
2023/12/20 07:54:56;;;;;;;28.92;4.45;;;6.90;99.90;;;;;;5072941;28;20039;-81
2023/12/20 07:57:23;;;;;;;32.67;5.00;;;6.90;99.90;;;;;;5072730;28;20467;-86
2023/12/20 07:59:50;;;;;;;31.05;4.40;;;6.90;99.90;;;;;;5075282;28;20039;-82
2023/12/20 08:02:16;;;;;;;22.98;4.28;;;6.90;99.90;;;;;;5110004;27;20039;-81
2023/12/20 08:04:43;;;;;;;23.83;4.10;;;6.90;99.90;;;;;;5075082;27;20054;-81
2023/12/20 08:07:09;;;;;;;22.50;3.88;;;7.00;99.90;;;;;;5047842;28;20036;-82
2023/12/20 08:09:36;;;;;;;24.33;4.57;;;7.00;99.90;;;;;;5083118;28;20390;-82
2023/12/20 08:12:03;;;;;;;28.95;4.82;;;7.00;99.90;;;;;;5063046;28;20038;-83
2023/12/20 08:14:29;;;;;;;28.52;5.07;;;7.00;99.90;;;;;;5095363;28;20386;-82
2023/12/20 08:16:56;;;;;;;26.67;5.72;;;7.00;99.90;;;;;;5075535;28;20129;-82
2023/12/20 08:19:22;;;;;;;26.70;4.20;;;7.00;99.90;;;;;;5075627;28;20040;-79
2023/12/20 08:21:48;;;;;;;25.73;4.53;;;7.10;99.90;;;;;;5062327;28;20391;-87
2023/12/20 08:24:14;;;;;;;26.30;4.25;;;7.10;99.90;;;;;;5076632;28;20386;-86
2023/12/20 08:26:41;;;;;;;28.10;4.05;;;7.10;99.90;;;;;;5072656;28;20612;-77
2023/12/20 08:29:07;;;;;;;16.55;3.45;;;7.10;99.90;;;;;;5075403;27;20037;-80
2023/12/20 08:31:34;;;;;;;27.17;4.55;;;7.10;99.90;;;;;;5074311;28;20035;-84
2023/12/20 08:34:00;;;;;;;19.90;3.97;;;7.10;99.90;;;;;;5055634;28;20024;-82
2023/12/20 08:36:27;;;;;;;34.88;4.95;;;7.10;99.90;;;;;;5075190;28;20027;-84
2023/12/20 08:38:53;;;;;;;27.63;4.22;;;7.10;99.90;;;;;;5061064;28;20589;-82
2023/12/20 08:41:20;;;;;;;18.52;3.25;;;7.10;99.90;;;;;;5059857;28;20379;-87
2023/12/20 08:43:46;;;;;;;25.08;4.07;;;7.20;99.90;;;;;;5091542;27;20024;-88
2023/12/20 08:46:14;;;;;;;24.73;4.03;;;7.20;99.90;;;;;;5055771;28;20035;-82
2023/12/20 08:48:42;;;;;;;21.75;3.95;;;7.20;99.90;;;;;;5090271;28;20132;-86
2023/12/20 08:51:09;;;;;;;23.83;4.13;;;7.20;99.90;;;;;;5091932;28;20032;-82
2023/12/20 08:53:35;;;;;;;20.27;3.97;;;7.20;99.90;;;;;;5060166;28;20035;-74
2023/12/20 08:56:02;;;;;;;21.85;4.22;;;7.20;99.90;;;;;;5074549;28;20042;-83
2023/12/20 08:58:28;;;;;;;27.42;3.90;;;7.20;99.90;;;;;;5062851;28;20038;-81
2023/12/20 09:00:54;;;;;;;20.00;3.83;;;7.20;99.90;;;;;;5078335;28;20036;-82
2023/12/20 09:03:21;;;;;;;24.83;4.18;;;7.30;99.90;;;;;;5074426;28;20035;-85
2023/12/20 09:05:47;;;;;;;32.60;4.47;;;7.30;99.90;;;;;;5092513;28;20489;-75
2023/12/20 09:08:13;;;;;;;25.40;4.25;;;7.30;99.90;;;;;;5061757;28;20430;-82
2023/12/20 09:10:39;;;;;;;26.13;4.03;;;7.30;99.90;;;;;;5047582;27;20035;-81
2023/12/20 09:13:06;;;;;;;18.52;3.42;;;7.30;99.90;;;;;;5058718;28;20038;-81
2023/12/20 09:15:34;;;;;;;32.50;5.82;;;7.30;99.90;;;;;;5055412;28;20473;-81
2023/12/20 09:18:00;;;;;;;22.90;3.92;;;7.30;99.90;;;;;;5075098;28;20036;-78
2023/12/20 09:20:27;;;;;;;35.15;4.45;;;7.30;99.90;;;;;;5072689;28;20027;-80
2023/12/20 09:22:53;;;;;;;24.98;3.60;;;7.30;99.90;;;;;;5056932;28;20062;-75
2023/12/20 09:25:20;;;;;;;20.70;3.72;;;7.30;99.90;;;;;;5074721;28;20036;-76
2023/12/20 09:27:46;;;;;;;26.08;4.50;;;7.20;99.90;;;;;;5041114;28;20459;-75
2023/12/20 09:30:12;;;;;;;23.75;3.92;;;7.30;99.90;;;;;;5060882;28;20509;-75
2023/12/20 09:32:39;;;;;;;23.45;3.90;;;7.20;99.90;;;;;;5059506;28;20382;-79
2023/12/20 09:35:06;;;;;;;23.38;4.07;;;7.20;99.90;;;;;;5091914;28;20467;-78
2023/12/20 09:37:32;;;;;;;22.88;3.22;;;7.20;99.90;;;;;;5042429;28;20039;-79
2023/12/20 09:39:59;;;;;;;30.52;4.15;;;7.20;99.90;;;;;;5064578;28;20038;-80
2023/12/20 09:42:39;;;;;;;28.42;3.90;;;7.20;99.90;;;;;;5057935;28;20032;-79
2023/12/20 09:45:08;;;;;;;25.30;4.20;;;7.20;99.90;;;;;;5044113;28;20040;-78
2023/12/20 09:47:35;;;;;;;25.70;3.80;;;7.20;99.90;;;;;;5077432;28;20500;-79
2023/12/20 09:50:02;;;;;;;25.10;4.47;;;7.20;99.90;;;;;;5074878;28;20523;-75
2023/12/20 09:52:29;;;;;;;32.30;5.32;;;7.20;99.90;;;;;;5074329;28;20035;-82
2023/12/20 09:54:56;;;;;;;31.67;4.18;;;7.20;99.90;;;;;;5075825;28;20047;-82
2023/12/20 09:57:23;;;;;;;27.48;4.20;;;7.20;99.90;;;;;;5077327;28;20046;-81
2023/12/20 09:59:50;;;;;;;18.90;3.50;;;7.20;99.90;;;;;;5056157;28;20042;-79
2023/12/20 10:02:19;;;;;;;27.00;3.70;;;7.20;99.90;;;;;;5047890;28;20032;-84
2023/12/20 10:04:48;;;;;;;20.88;3.80;;;7.20;99.90;;;;;;5077229;28;20043;-80
2023/12/20 10:07:15;;;;;;;25.25;4.38;;;7.20;99.90;;;;;;5111138;27;20089;-80
2023/12/20 10:09:42;;;;;;;27.00;5.13;;;7.20;99.90;;;;;;5059933;28;20032;-81
2023/12/20 10:12:08;;;;;;;28.30;4.68;;;7.20;99.90;;;;;;5077378;28;20398;-80
2023/12/20 10:14:35;;;;;;;16.73;3.15;;;7.20;99.90;;;;;;5055386;28;20032;-84
2023/12/20 10:17:05;;;;;;;23.65;4.00;;;7.30;99.90;;;;;;5070397;28;20036;-82
2023/12/20 10:19:32;;;;;;;32.13;4.85;;;7.30;99.90;;;;;;5074634;28;20046;-84
2023/12/20 10:22:04;;;;;;;25.73;3.63;;;7.30;99.90;;;;;;5061602;27;20044;-83
2023/12/20 10:24:31;;;;;;;28.90;5.68;;;7.30;99.90;;;;;;5096095;28;20042;-78
2023/12/20 10:27:07;;;;;;;23.55;3.50;;;7.30;99.90;;;;;;5095994;27;20043;-85
2023/12/20 10:29:38;;;;;;;28.00;4.32;;;7.40;99.90;;;;;;5063698;27;20035;-84
2023/12/20 10:32:27;;;;;;;33.88;4.72;;;7.40;99.90;;;;;;5078368;28;20497;-78
2023/12/20 10:34:55;;;;;;;32.83;4.13;;;7.40;99.90;;;;;;5076344;28;20022;-80
2023/12/20 10:37:21;;;;;;;38.78;5.30;;;7.50;99.90;;;;;;5075374;28;20506;-82
2023/12/20 10:39:51;;;;;;;34.47;4.82;;;7.50;99.90;;;;;;5073303;27;20031;-82
2023/12/20 10:42:21;;;;;;;23.88;4.10;;;7.50;99.90;;;;;;5060671;28;20036;-83
2023/12/20 10:44:49;;;;;;;23.35;4.60;;;7.50;99.90;;;;;;5078914;28;20062;-84
2023/12/20 10:47:16;;;;;;;26.88;3.72;;;7.50;99.90;;;;;;5095866;28;20032;-82
2023/12/20 10:49:44;;;;;;;21.08;3.95;;;7.50;99.90;;;;;;5076756;28;20042;-80
2023/12/20 10:52:12;;;;;;;24.05;3.67;;;7.50;99.90;;;;;;5073471;28;20036;-80
2023/12/20 10:54:42;;;;;;;20.17;4.50;;;7.60;99.90;;;;;;5061332;27;20555;-78
2023/12/20 10:57:08;;;;;;;16.90;3.45;;;7.60;99.90;;;;;;5061094;28;20050;-80
2023/12/20 10:59:37;;;;;;;25.02;4.72;;;7.60;99.90;;;;;;5063103;28;20015;-81
2023/12/20 11:02:07;;;;;;;22.45;4.07;;;7.60;99.90;;;;;;5076854;28;20020;-80
2023/12/20 11:04:59;;;;;;;19.50;3.20;;;7.70;99.90;;;;;;5076786;28;20062;-81
2023/12/20 11:07:35;;;;;;;17.08;3.38;;;7.70;99.90;;;;;;5076721;27;20023;-79
2023/12/20 11:10:20;;;;;;;21.00;3.78;;;7.70;99.90;;;;;;5061294;28;20398;-79
2023/12/20 11:12:53;;;;;;;20.45;4.78;;;7.80;99.90;;;;;;5077885;28;20032;-79
2023/12/20 11:15:20;;;;;;;14.15;2.88;;;7.80;99.90;;;;;;5075274;28;20032;-82
2023/12/20 11:17:56;;;;;;;23.40;4.45;;;7.80;99.90;;;;;;5061005;28;20039;-82
2023/12/20 11:20:24;;;;;;;24.17;4.10;;;7.90;99.90;;;;;;5077678;28;20035;-81
2023/12/20 11:22:54;;;;;;;22.90;4.45;;;7.90;99.90;;;;;;5093170;28;20032;-80
2023/12/20 11:25:21;;;;;;;16.27;3.63;;;7.90;99.90;;;;;;5098007;27;20028;-84
2023/12/20 11:28:08;;;;;;;19.88;3.63;;;8.00;99.90;;;;;;5077606;28;20040;-78
2023/12/20 11:30:43;;;;;;;21.50;4.00;;;8.00;99.90;;;;;;5077876;28;20031;-84
2023/12/20 11:33:09;;;;;;;19.35;3.88;;;8.10;99.90;;;;;;5058255;28;20031;-82
2023/12/20 11:35:36;;;;;;;15.93;3.42;;;8.10;99.90;;;;;;5087693;28;20036;-84
2023/12/20 11:38:04;;;;;;;13.90;3.60;;;8.10;99.90;;;;;;5077627;28;20039;-75
2023/12/20 11:40:34;;;;;;;18.92;4.18;;;8.20;99.90;;;;;;5079305;28;20040;-78
2023/12/20 11:43:01;;;;;;;23.73;4.80;;;8.20;99.90;;;;;;5072689;28;20036;-84
2023/12/20 11:45:28;;;;;;;20.83;4.78;;;8.30;99.90;;;;;;5072618;28;22475;-84
2023/12/20 11:47:54;;;;;;;15.65;3.83;;;8.30;99.90;;;;;;5077348;27;20027;-80
2023/12/20 11:50:22;;;;;;;19.00;3.78;;;8.30;99.90;;;;;;5092798;28;20027;-85
2023/12/20 11:52:49;;;;;;;28.30;5.30;;;8.30;99.90;;;;;;5093248;28;20043;-77
2023/12/20 11:55:16;;;;;;;32.30;5.50;;;8.30;99.90;;;;;;5111331;27;20028;-79
2023/12/20 11:57:43;;;;;;;20.33;5.45;;;8.30;99.90;;;;;;5099741;28;20066;-84
2023/12/20 12:00:10;;;;;;;30.90;4.80;;;8.30;99.90;;;;;;5097934;27;20031;-81
2023/12/20 12:02:39;;;;;;;19.05;4.05;;;8.30;99.90;;;;;;5066709;28;20039;-79
2023/12/20 12:05:06;;;;;;;26.73;3.65;;;8.40;99.90;;;;;;5073912;28;20458;-74
2023/12/20 12:07:34;;;;;;;25.40;4.03;;;8.30;99.90;;;;;;5096374;27;20489;-79
2023/12/20 12:10:03;;;;;;;16.67;3.45;;;8.40;99.90;;;;;;5090585;28;20032;-80
2023/12/20 12:12:30;;;;;;;15.63;3.17;;;8.30;99.90;;;;;;5075248;28;20022;-83
2023/12/20 12:14:57;;;;;;;16.67;2.50;;;8.40;99.90;;;;;;5093764;28;20043;-82
2023/12/20 12:17:24;;;;;;;22.98;3.78;;;8.30;99.90;;;;;;5074881;28;20031;-81
2023/12/20 12:19:50;;;;;;;21.05;4.30;;;8.40;99.90;;;;;;5044493;27;20040;-83
2023/12/20 12:22:18;;;;;;;14.82;2.85;;;8.30;99.90;;;;;;5075928;28;20028;-83
2023/12/20 12:24:45;;;;;;;23.38;3.85;;;8.40;99.90;;;;;;5073559;28;20046;-84
2023/12/20 12:27:12;;;;;;;20.55;3.40;;;8.40;99.90;;;;;;5091966;28;20044;-81
2023/12/20 12:29:40;;;;;;;14.20;4.00;;;8.40;99.90;;;;;;5093001;27;20023;-84
2023/12/20 12:32:07;;;;;;;16.27;3.17;;;8.40;99.90;;;;;;5079210;28;20027;-76
2023/12/20 12:34:34;;;;;;;21.20;3.15;;;8.50;99.90;;;;;;5075290;28;20035;-84
2023/12/20 12:37:01;;;;;;;22.45;3.25;;;8.50;99.90;;;;;;5095031;28;20042;-85
2023/12/20 12:39:27;;;;;;;18.63;2.80;;;8.50;99.90;;;;;;5044838;28;20039;-82
2023/12/20 12:41:53;;;;;;;12.63;2.38;;;8.50;99.90;;;;;;5093561;27;20036;-85
2023/12/20 12:44:22;;;;;;;17.48;2.88;;;8.60;99.90;;;;;;5070901;28;20333;-84
2023/12/20 12:46:50;;;;;;;17.33;3.90;;;8.60;99.90;;;;;;5075274;28;20042;-86